Time;durP1;ratioP1;P1;durP2;ratioP2;P2;SDS_P1;SDS_P2;PMS_P1;PMS_P2;Temp;Humidity;BMP_temperature;BMP_pressure;BME280_temperature;BME280_humidity;BME280_pressure;Samples;Min_cycle;Max_cycle;Signal;HPM_P1;HPM_P2
2023/10/29 00:01:57;;;;;;;7.67;1.73;;;10.80;99.90;;;;;;482469;246;28425;-72
2023/10/29 00:03:58;;;;;;;3.30;1.87;;;10.90;99.90;;;;;;482460;246;28033;-72
2023/10/29 00:06:00;;;;;;;4.33;1.80;;;11.00;99.90;;;;;;482447;246;27978;-72
2023/10/29 00:08:01;;;;;;;5.80;2.13;;;11.00;99.90;;;;;;482302;246;27988;-74
2023/10/29 00:10:02;;;;;;;1.87;1.77;;;10.90;99.90;;;;;;482381;246;27871;-72
2023/10/29 00:12:03;;;;;;;3.70;1.67;;;10.90;99.90;;;;;;482431;246;28094;-72
2023/10/29 00:14:06;;;;;;;4.03;1.73;;;11.00;99.90;;;;;;482481;246;27857;-72
2023/10/29 00:16:06;;;;;;;1.80;1.70;;;11.00;99.90;;;;;;482403;246;27608;-71
2023/10/29 00:18:13;;;;;;;3.33;1.97;;;11.00;99.90;;;;;;482446;246;27992;-72
2023/10/29 00:20:11;;;;;;;4.63;1.70;;;11.10;99.90;;;;;;482310;246;27932;-72
2023/10/29 00:22:13;;;;;;;2.30;1.67;;;11.10;99.90;;;;;;482425;246;27878;-72
2023/10/29 00:24:14;;;;;;;2.40;1.70;;;11.00;99.90;;;;;;482445;246;27865;-72
2023/10/29 00:26:15;;;;;;;3.33;1.63;;;11.00;99.90;;;;;;482419;246;27913;-74
2023/10/29 00:28:16;;;;;;;1.87;1.67;;;11.00;99.90;;;;;;482483;246;27945;-72
2023/10/29 00:30:18;;;;;;;3.33;1.67;;;11.10;99.90;;;;;;482458;246;27902;-72
2023/10/29 00:32:19;;;;;;;3.63;1.70;;;11.10;99.90;;;;;;482413;246;28048;-72
2023/10/29 00:34:20;;;;;;;2.10;1.90;;;11.10;99.90;;;;;;482428;246;28002;-72
2023/10/29 00:36:21;;;;;;;3.47;1.70;;;11.10;99.90;;;;;;482422;246;28286;-73
2023/10/29 00:38:24;;;;;;;3.10;1.60;;;11.10;99.90;;;;;;482432;246;28450;-72
2023/10/29 00:40:25;;;;;;;1.90;1.80;;;11.10;99.90;;;;;;482407;246;28434;-72
2023/10/29 00:42:25;;;;;;;4.10;1.93;;;11.10;99.90;;;;;;482463;246;28372;-72
2023/10/29 00:44:26;;;;;;;4.30;1.70;;;11.10;99.90;;;;;;482413;246;27958;-72
2023/10/29 00:46:28;;;;;;;1.70;1.60;;;11.10;99.90;;;;;;482438;246;27990;-73
2023/10/29 00:48:29;;;;;;;7.87;1.73;;;11.10;99.90;;;;;;482445;246;27951;-72
2023/10/29 00:50:30;;;;;;;4.63;1.70;;;11.10;99.90;;;;;;482435;246;27885;-72
2023/10/29 00:52:31;;;;;;;2.40;1.67;;;11.10;99.90;;;;;;482440;246;28362;-74
2023/10/29 00:54:33;;;;;;;1.73;1.63;;;11.00;99.90;;;;;;482433;246;27836;-72
2023/10/29 00:56:34;;;;;;;2.03;1.70;;;11.00;99.90;;;;;;482482;246;27863;-72
2023/10/29 00:58:35;;;;;;;2.87;1.60;;;11.00;99.90;;;;;;482400;246;27919;-72
2023/10/29 01:00:36;;;;;;;2.83;1.70;;;11.00;99.90;;;;;;482390;246;28366;-72
2023/10/29 01:02:38;;;;;;;9.53;3.27;;;10.90;99.90;;;;;;482456;246;28547;-74
2023/10/29 01:04:39;;;;;;;10.53;7.10;;;11.00;99.90;;;;;;482440;246;28333;-72
2023/10/29 01:06:41;;;;;;;7.90;5.10;;;10.90;99.90;;;;;;482462;246;27994;-72
2023/10/29 01:08:41;;;;;;;9.90;2.47;;;10.90;99.90;;;;;;482395;246;28026;-72
2023/10/29 01:10:43;;;;;;;8.10;1.90;;;10.90;99.90;;;;;;482397;246;27832;-72
2023/10/29 01:12:44;;;;;;;2.00;1.90;;;10.90;99.90;;;;;;482251;246;28031;-72
2023/10/29 01:14:45;;;;;;;1.80;1.63;;;10.90;99.90;;;;;;482359;246;27946;-72
2023/10/29 01:16:46;;;;;;;2.93;2.10;;;11.00;99.90;;;;;;482361;246;27982;-72
2023/10/29 01:18:48;;;;;;;3.17;1.73;;;11.00;99.90;;;;;;482428;246;28325;-73
2023/10/29 01:20:49;;;;;;;2.10;1.63;;;11.00;99.90;;;;;;482463;246;27961;-72
2023/10/29 01:22:50;;;;;;;1.80;1.70;;;10.90;99.90;;;;;;482454;246;28023;-72
2023/10/29 01:24:51;;;;;;;2.07;1.50;;;10.90;99.90;;;;;;482435;246;28379;-72
2023/10/29 01:26:53;;;;;;;3.97;1.90;;;10.90;99.90;;;;;;482448;246;28499;-72
2023/10/29 01:28:55;;;;;;;3.00;1.73;;;10.90;99.90;;;;;;482435;246;28441;-72
2023/10/29 01:30:58;;;;;;;2.10;1.90;;;11.00;99.90;;;;;;482424;246;27894;-72
2023/10/29 01:32:59;;;;;;;5.20;1.70;;;10.90;99.90;;;;;;482476;246;27897;-73
2023/10/29 01:34:59;;;;;;;1.90;1.70;;;10.90;99.90;;;;;;482465;246;28430;-72
2023/10/29 01:37:01;;;;;;;3.17;1.87;;;10.90;99.90;;;;;;482445;246;28488;-73
2023/10/29 01:39:02;;;;;;;2.07;1.57;;;11.00;99.90;;;;;;482487;246;28474;-72
2023/10/29 01:41:03;;;;;;;2.77;1.60;;;11.00;99.90;;;;;;482431;246;27951;-72
2023/10/29 01:43:04;;;;;;;1.83;1.67;;;11.00;99.90;;;;;;482500;246;27823;-72
2023/10/29 01:45:06;;;;;;;1.70;1.60;;;11.00;99.90;;;;;;482471;246;27825;-71
2023/10/29 01:47:07;;;;;;;2.17;1.60;;;11.00;99.90;;;;;;482469;246;27967;-72
2023/10/29 01:49:09;;;;;;;1.70;1.50;;;11.00;99.90;;;;;;482463;246;27767;-72
2023/10/29 01:51:09;;;;;;;5.60;2.20;;;11.00;99.90;;;;;;482506;246;27880;-72
2023/10/29 01:53:11;;;;;;;2.17;1.60;;;11.00;99.90;;;;;;482504;246;28009;-72
2023/10/29 01:55:12;;;;;;;3.90;1.97;;;11.00;99.90;;;;;;482409;246;27970;-72
2023/10/29 01:57:13;;;;;;;4.30;1.97;;;11.00;99.90;;;;;;482383;246;28127;-72
2023/10/29 01:59:14;;;;;;;2.70;1.50;;;11.00;99.90;;;;;;482457;246;28344;-74
2023/10/29 02:01:16;;;;;;;2.20;2.00;;;11.00;99.90;;;;;;482434;246;28501;-72
2023/10/29 02:03:17;;;;;;;1.50;1.40;;;11.00;99.90;;;;;;482442;246;28439;-72
2023/10/29 02:05:18;;;;;;;6.30;1.90;;;11.00;99.90;;;;;;482412;246;27882;-72
2023/10/29 02:07:19;;;;;;;3.80;1.67;;;11.00;99.90;;;;;;482407;246;27983;-72
2023/10/29 02:09:21;;;;;;;4.17;1.77;;;11.00;99.90;;;;;;482448;244;27789;-72
2023/10/29 02:11:22;;;;;;;2.53;1.60;;;11.00;99.90;;;;;;482422;246;27972;-72
2023/10/29 02:13:23;;;;;;;2.00;1.47;;;11.00;99.90;;;;;;482422;246;27897;-72
2023/10/29 02:15:24;;;;;;;2.70;1.63;;;11.00;99.90;;;;;;482466;246;27863;-72
2023/10/29 02:17:27;;;;;;;2.10;1.43;;;11.10;99.90;;;;;;482524;246;27872;-73
2023/10/29 02:19:27;;;;;;;2.17;1.77;;;11.10;99.90;;;;;;482456;246;27971;-73
2023/10/29 02:21:28;;;;;;;2.50;1.60;;;11.10;99.90;;;;;;482450;246;27941;-72
2023/10/29 02:23:29;;;;;;;2.40;1.60;;;11.20;99.90;;;;;;482413;246;27895;-71
2023/10/29 02:25:31;;;;;;;3.70;1.93;;;11.20;99.90;;;;;;482477;246;28061;-73
2023/10/29 02:27:32;;;;;;;2.33;1.83;;;11.20;99.90;;;;;;482455;246;28063;-72
2023/10/29 02:29:33;;;;;;;3.83;1.73;;;11.20;99.90;;;;;;482475;246;27804;-71
2023/10/29 02:31:34;;;;;;;2.43;1.87;;;11.20;99.90;;;;;;482471;246;29135;-72
2023/10/29 02:33:36;;;;;;;3.00;1.40;;;11.20;99.90;;;;;;482395;246;28473;-73
2023/10/29 02:35:37;;;;;;;2.07;1.60;;;11.20;99.90;;;;;;482418;246;28501;-72
2023/10/29 02:37:38;;;;;;;1.50;1.40;;;11.20;99.90;;;;;;482432;246;28485;-72
2023/10/29 02:39:39;;;;;;;3.07;1.70;;;11.20;99.90;;;;;;482422;246;27909;-72
2023/10/29 02:41:41;;;;;;;3.13;1.50;;;11.20;99.90;;;;;;482418;246;27922;-72
2023/10/29 02:43:43;;;;;;;5.80;1.57;;;11.20;99.90;;;;;;482448;246;27969;-72
2023/10/29 02:45:44;;;;;;;1.50;1.40;;;11.20;99.90;;;;;;482428;246;27885;-72
2023/10/29 02:47:45;;;;;;;4.40;1.40;;;11.20;99.90;;;;;;482482;246;27989;-73
2023/10/29 02:49:46;;;;;;;3.53;1.63;;;11.10;99.90;;;;;;482482;246;28083;-71
2023/10/29 02:51:48;;;;;;;5.70;2.07;;;11.10;99.90;;;;;;482459;245;28464;-72
2023/10/29 02:53:49;;;;;;;2.30;1.60;;;11.10;99.90;;;;;;482392;246;28303;-72
2023/10/29 02:55:50;;;;;;;3.50;1.63;;;11.10;99.90;;;;;;482421;246;27751;-72
2023/10/29 02:57:51;;;;;;;2.80;1.70;;;11.10;99.90;;;;;;482451;246;27823;-72
2023/10/29 02:59:53;;;;;;;2.00;1.73;;;11.10;99.90;;;;;;482445;246;27940;-72
2023/10/29 03:01:54;;;;;;;3.63;1.73;;;11.20;99.90;;;;;;482400;246;27902;-72
2023/10/29 03:03:55;;;;;;;1.67;1.57;;;11.20;99.90;;;;;;482404;246;28570;-73
2023/10/29 03:05:56;;;;;;;2.47;1.87;;;11.20;99.90;;;;;;482455;246;27874;-72
2023/10/29 03:07:59;;;;;;;1.50;1.40;;;11.20;99.90;;;;;;482423;246;27908;-73
2023/10/29 03:09:59;;;;;;;1.73;1.50;;;11.20;99.90;;;;;;482444;246;27951;-72
2023/10/29 03:12:00;;;;;;;2.60;2.03;;;11.20;99.90;;;;;;482365;246;28023;-72
2023/10/29 03:14:01;;;;;;;4.83;1.60;;;11.20;99.90;;;;;;482435;246;28461;-73
2023/10/29 03:16:03;;;;;;;1.67;1.20;;;11.30;99.90;;;;;;482418;246;28388;-72
2023/10/29 03:18:04;;;;;;;1.77;1.67;;;11.30;99.90;;;;;;482407;246;28490;-72
2023/10/29 03:20:05;;;;;;;3.67;1.60;;;11.30;99.90;;;;;;482409;246;27889;-72
2023/10/29 03:22:06;;;;;;;1.80;1.70;;;11.30;99.90;;;;;;482415;246;28073;-72
2023/10/29 03:24:08;;;;;;;7.80;2.20;;;11.40;99.90;;;;;;482408;246;27813;-75
2023/10/29 03:26:09;;;;;;;3.33;1.70;;;11.40;99.90;;;;;;482414;246;27985;-72
2023/10/29 03:28:10;;;;;;;1.50;1.40;;;11.40;99.90;;;;;;482407;246;28094;-72
2023/10/29 03:30:11;;;;;;;2.00;1.50;;;11.40;99.90;;;;;;482397;246;27795;-72
2023/10/29 03:32:13;;;;;;;2.47;1.70;;;11.40;99.90;;;;;;482412;246;27990;-72
2023/10/29 03:34:14;;;;;;;1.40;1.30;;;11.40;99.90;;;;;;482416;246;28589;-72
2023/10/29 03:36:15;;;;;;;2.50;1.30;;;11.50;99.90;;;;;;482426;246;28332;-72
2023/10/29 03:38:16;;;;;;;3.80;2.27;;;11.50;99.90;;;;;;482467;246;28408;-72
2023/10/29 03:40:18;;;;;;;1.50;1.30;;;11.60;99.90;;;;;;482415;246;28058;-73
2023/10/29 03:42:19;;;;;;;1.70;1.60;;;11.60;99.90;;;;;;482411;246;27875;-71
2023/10/29 03:44:20;;;;;;;2.70;1.40;;;11.60;99.90;;;;;;482464;246;27991;-72
2023/10/29 03:46:22;;;;;;;1.77;1.47;;;11.60;99.90;;;;;;482457;246;27972;-72
2023/10/29 03:48:23;;;;;;;2.20;1.50;;;11.60;99.90;;;;;;482428;246;27943;-73
2023/10/29 03:50:24;;;;;;;2.60;1.77;;;11.60;99.90;;;;;;482431;246;28160;-72
2023/10/29 03:52:25;;;;;;;3.73;1.90;;;11.60;99.90;;;;;;482418;246;28100;-72
2023/10/29 03:54:26;;;;;;;2.03;1.50;;;11.70;99.90;;;;;;482430;246;27922;-72
2023/10/29 03:56:28;;;;;;;1.63;1.50;;;11.70;99.90;;;;;;482443;246;27976;-72
2023/10/29 03:58:29;;;;;;;2.83;1.40;;;11.70;99.90;;;;;;482413;246;28648;-72
2023/10/29 04:00:30;;;;;;;4.20;1.60;;;11.80;99.90;;;;;;482487;246;28759;-72
2023/10/29 04:02:31;;;;;;;2.23;1.47;;;11.70;99.90;;;;;;482457;246;28462;-72
2023/10/29 04:04:34;;;;;;;2.10;1.40;;;11.70;99.90;;;;;;482483;246;28653;-73
2023/10/29 04:06:35;;;;;;;6.27;1.73;;;11.70;99.90;;;;;;482461;246;28158;-72
2023/10/29 04:08:36;;;;;;;1.87;1.30;;;11.70;99.90;;;;;;482433;246;28184;-74
2023/10/29 04:10:37;;;;;;;1.63;1.53;;;11.70;99.90;;;;;;482421;246;29361;-72
2023/10/29 04:12:39;;;;;;;7.10;1.60;;;11.60;99.90;;;;;;482493;246;28605;-72
2023/10/29 04:14:42;;;;;;;1.60;1.50;;;11.60;99.90;;;;;;482430;246;28599;-72
2023/10/29 04:16:42;;;;;;;2.73;1.73;;;11.60;99.90;;;;;;482446;246;28042;-73
2023/10/29 04:18:44;;;;;;;1.70;1.60;;;11.60;99.90;;;;;;482441;246;27958;-72
2023/10/29 04:20:46;;;;;;;2.33;1.53;;;11.60;99.90;;;;;;482427;246;28062;-71
2023/10/29 04:22:47;;;;;;;1.83;1.73;;;11.60;99.90;;;;;;482440;246;27552;-72
2023/10/29 04:24:49;;;;;;;3.17;1.60;;;11.60;99.90;;;;;;482425;246;27993;-73
2023/10/29 04:26:51;;;;;;;1.80;1.70;;;11.60;99.90;;;;;;482456;246;28817;-72
2023/10/29 04:28:53;;;;;;;3.37;1.73;;;11.50;99.90;;;;;;482430;246;28602;-72
2023/10/29 04:30:55;;;;;;;2.13;1.80;;;11.40;99.90;;;;;;482452;246;28409;-72
2023/10/29 04:32:56;;;;;;;1.70;1.60;;;11.40;99.90;;;;;;482420;246;28635;-72
2023/10/29 04:34:57;;;;;;;5.00;1.60;;;11.40;99.90;;;;;;482430;246;28357;-75
2023/10/29 04:36:59;;;;;;;3.57;1.57;;;11.30;99.90;;;;;;482452;246;28062;-72
2023/10/29 04:39:00;;;;;;;1.90;1.57;;;11.40;99.90;;;;;;482343;246;28091;-72
2023/10/29 04:41:01;;;;;;;2.30;1.67;;;11.30;99.90;;;;;;482271;246;27914;-72
2023/10/29 04:43:02;;;;;;;3.83;1.90;;;11.30;99.90;;;;;;482482;246;28022;-72
2023/10/29 04:45:04;;;;;;;3.30;1.73;;;11.30;99.90;;;;;;482461;246;28065;-72
2023/10/29 04:47:05;;;;;;;1.67;1.57;;;11.30;99.90;;;;;;482433;246;28161;-72
2023/10/29 04:49:06;;;;;;;2.00;1.50;;;11.30;99.90;;;;;;482458;246;27959;-72
2023/10/29 04:51:07;;;;;;;1.87;1.77;;;11.30;99.90;;;;;;482459;246;27775;-72
2023/10/29 04:53:09;;;;;;;2.13;1.53;;;11.40;99.90;;;;;;482457;246;27985;-73
2023/10/29 04:55:10;;;;;;;3.10;1.80;;;11.30;99.90;;;;;;482488;246;28572;-72
2023/10/29 04:57:11;;;;;;;6.10;1.70;;;11.30;99.90;;;;;;482467;246;28398;-72
2023/10/29 04:59:13;;;;;;;2.93;1.93;;;11.30;99.90;;;;;;482464;246;28584;-72
2023/10/29 05:01:17;;;;;;;6.33;2.17;;;11.30;99.90;;;;;;482370;246;28069;-71
2023/10/29 05:03:15;;;;;;;2.37;1.80;;;11.40;99.90;;;;;;482421;246;28077;-72
2023/10/29 05:05:17;;;;;;;4.90;1.80;;;11.40;99.90;;;;;;482462;246;27862;-71
2023/10/29 05:07:17;;;;;;;3.00;1.67;;;11.40;99.90;;;;;;482396;246;28004;-73
2023/10/29 05:09:19;;;;;;;5.47;1.90;;;11.40;99.90;;;;;;482423;246;28022;-72
2023/10/29 05:11:20;;;;;;;2.90;2.00;;;11.40;99.90;;;;;;482457;246;28122;-71
2023/10/29 05:13:21;;;;;;;2.90;1.70;;;11.40;99.90;;;;;;482443;246;27915;-72
2023/10/29 05:15:22;;;;;;;3.73;1.90;;;11.40;99.90;;;;;;482468;246;27989;-71
2023/10/29 05:17:24;;;;;;;3.57;2.03;;;11.40;99.90;;;;;;482428;246;28096;-72
2023/10/29 05:19:25;;;;;;;7.30;2.53;;;11.40;99.90;;;;;;482439;246;28559;-73
2023/10/29 05:21:26;;;;;;;2.47;1.83;;;11.40;99.90;;;;;;482434;246;28469;-72
2023/10/29 05:23:27;;;;;;;2.00;1.70;;;11.40;99.90;;;;;;482415;246;28531;-73
2023/10/29 05:25:30;;;;;;;1.90;1.70;;;11.30;99.90;;;;;;482446;246;28557;-75
2023/10/29 05:27:30;;;;;;;3.63;2.00;;;11.30;99.90;;;;;;482470;246;28029;-72
2023/10/29 05:29:32;;;;;;;5.80;2.10;;;11.40;99.90;;;;;;482466;246;28066;-73
2023/10/29 05:31:32;;;;;;;3.30;1.83;;;11.40;99.90;;;;;;482450;246;27915;-72
2023/10/29 05:33:35;;;;;;;6.10;2.53;;;11.40;99.90;;;;;;482419;246;28123;-72
2023/10/29 05:35:35;;;;;;;2.07;1.90;;;11.40;99.90;;;;;;482462;246;28042;-72
2023/10/29 05:37:36;;;;;;;1.87;1.77;;;11.40;99.90;;;;;;482471;246;28177;-72
2023/10/29 05:39:37;;;;;;;4.43;1.97;;;11.30;99.90;;;;;;482444;246;28039;-72
2023/10/29 05:41:39;;;;;;;3.70;1.87;;;11.40;99.90;;;;;;482439;246;27842;-72
2023/10/29 05:43:40;;;;;;;4.67;1.87;;;11.40;99.90;;;;;;482418;246;28649;-71
2023/10/29 05:45:41;;;;;;;2.10;1.90;;;11.40;99.90;;;;;;482442;246;28576;-72
2023/10/29 05:47:43;;;;;;;4.23;1.70;;;11.40;99.90;;;;;;482506;246;28504;-72
2023/10/29 05:49:44;;;;;;;4.17;1.80;;;11.40;99.90;;;;;;482446;245;28702;-71
2023/10/29 05:51:45;;;;;;;4.63;2.00;;;11.40;99.90;;;;;;482409;244;27996;-72
2023/10/29 05:53:50;;;;;;;4.30;2.07;;;11.40;99.90;;;;;;482419;246;28188;-72
2023/10/29 05:55:47;;;;;;;5.10;2.30;;;11.40;99.90;;;;;;482266;246;27941;-73
2023/10/29 05:57:49;;;;;;;4.80;2.50;;;11.40;99.90;;;;;;482422;246;27945;-72
2023/10/29 05:59:50;;;;;;;2.67;2.00;;;11.50;99.90;;;;;;482426;246;28152;-72
2023/10/29 06:01:51;;;;;;;8.53;2.87;;;11.50;99.90;;;;;;482411;246;27748;-72
2023/10/29 06:03:52;;;;;;;2.50;2.30;;;11.50;99.90;;;;;;482377;246;28056;-72
2023/10/29 06:05:54;;;;;;;5.03;2.20;;;11.50;99.90;;;;;;482421;246;28027;-72
2023/10/29 06:07:56;;;;;;;3.77;2.47;;;11.50;99.90;;;;;;482442;246;28429;-71
2023/10/29 06:09:56;;;;;;;4.60;2.20;;;11.50;99.90;;;;;;482435;246;28850;-72
2023/10/29 06:11:58;;;;;;;2.43;2.10;;;11.50;99.90;;;;;;482416;246;29459;-72
2023/10/29 06:13:59;;;;;;;4.90;2.77;;;11.50;99.90;;;;;;482470;246;28645;-71
2023/10/29 06:16:00;;;;;;;3.97;2.83;;;11.50;99.90;;;;;;482476;246;28019;-73
2023/10/29 06:18:04;;;;;;;3.10;2.00;;;11.50;99.90;;;;;;482479;246;28089;-71
2023/10/29 06:20:03;;;;;;;2.30;2.10;;;11.50;99.90;;;;;;482369;246;28052;-71
2023/10/29 06:22:06;;;;;;;2.93;2.27;;;11.50;99.90;;;;;;482438;246;28023;-72
2023/10/29 06:24:05;;;;;;;3.93;2.33;;;11.50;99.90;;;;;;482442;246;27842;-72
2023/10/29 06:26:06;;;;;;;2.27;1.93;;;11.50;99.90;;;;;;482452;246;28041;-71
2023/10/29 06:28:07;;;;;;;7.10;2.40;;;11.50;99.90;;;;;;482450;246;27978;-71
2023/10/29 06:30:09;;;;;;;7.40;2.97;;;11.50;99.90;;;;;;482403;246;28153;-72
2023/10/29 06:32:12;;;;;;;4.63;2.40;;;11.50;99.90;;;;;;482424;246;27952;-74
2023/10/29 06:34:14;;;;;;;3.40;2.60;;;11.50;99.90;;;;;;482415;246;27912;-71
2023/10/29 06:36:15;;;;;;;3.23;2.37;;;11.50;99.90;;;;;;482418;246;28148;-71
2023/10/29 06:38:16;;;;;;;2.60;2.30;;;11.60;99.90;;;;;;482456;246;28154;-72
2023/10/29 06:40:18;;;;;;;6.60;2.80;;;11.60;99.90;;;;;;482469;246;28502;-72
2023/10/29 06:42:19;;;;;;;4.90;2.20;;;11.60;99.90;;;;;;482482;246;28650;-72
2023/10/29 06:44:20;;;;;;;3.97;2.37;;;11.50;99.90;;;;;;482419;246;28618;-72
2023/10/29 06:46:21;;;;;;;5.63;2.50;;;11.60;99.90;;;;;;482434;246;28122;-72
2023/10/29 06:48:22;;;;;;;4.93;2.43;;;11.60;99.90;;;;;;482440;246;28126;-73
2023/10/29 06:50:24;;;;;;;3.70;2.17;;;11.60;99.90;;;;;;482408;246;28194;-72
2023/10/29 06:52:25;;;;;;;2.80;1.80;;;11.60;99.90;;;;;;482405;246;28083;-72
2023/10/29 06:54:26;;;;;;;1.97;1.80;;;11.60;99.90;;;;;;482417;246;28177;-72
2023/10/29 06:56:27;;;;;;;3.10;2.20;;;11.60;99.90;;;;;;482478;246;27988;-72
2023/10/29 06:58:29;;;;;;;5.27;2.37;;;11.60;99.90;;;;;;482478;246;28140;-72
2023/10/29 07:00:31;;;;;;;2.60;1.90;;;11.70;99.90;;;;;;482448;246;28113;-72
2023/10/29 07:02:32;;;;;;;3.47;1.80;;;11.70;99.90;;;;;;482361;246;28049;-72
2023/10/29 07:04:33;;;;;;;4.43;2.30;;;11.70;99.90;;;;;;482422;246;28534;-72
2023/10/29 07:06:34;;;;;;;5.57;2.10;;;11.70;99.90;;;;;;482467;246;28512;-72
2023/10/29 07:08:35;;;;;;;4.83;2.43;;;11.70;99.90;;;;;;482405;246;28592;-72
2023/10/29 07:10:36;;;;;;;4.70;2.43;;;11.70;99.90;;;;;;482424;246;28665;-72
2023/10/29 07:12:37;;;;;;;3.13;1.60;;;11.80;99.90;;;;;;482440;245;28158;-71
2023/10/29 07:14:39;;;;;;;2.47;1.90;;;11.80;99.90;;;;;;482462;246;28248;-72
2023/10/29 07:16:43;;;;;;;1.90;1.60;;;11.80;99.90;;;;;;482455;246;28199;-71
2023/10/29 07:18:41;;;;;;;2.13;1.93;;;11.80;99.90;;;;;;482437;246;28097;-72
2023/10/29 07:20:42;;;;;;;2.93;1.90;;;11.80;99.90;;;;;;482395;246;28254;-72
2023/10/29 07:22:44;;;;;;;3.20;1.80;;;11.80;99.90;;;;;;482383;246;28249;-72
2023/10/29 07:24:45;;;;;;;3.90;2.00;;;11.80;99.90;;;;;;482441;246;28246;-72
2023/10/29 07:26:46;;;;;;;2.60;1.80;;;11.80;99.90;;;;;;482443;245;27993;-72
2023/10/29 07:28:47;;;;;;;5.10;2.10;;;11.80;99.90;;;;;;482406;246;28640;-72
2023/10/29 07:30:49;;;;;;;4.50;2.40;;;11.80;99.90;;;;;;482351;246;28724;-73
2023/10/29 07:32:50;;;;;;;3.00;2.13;;;11.90;99.90;;;;;;482435;246;28555;-72
2023/10/29 07:34:51;;;;;;;4.00;1.73;;;11.90;99.90;;;;;;482448;246;28565;-72
2023/10/29 07:36:52;;;;;;;5.47;2.10;;;11.90;99.90;;;;;;482344;246;28213;-72
2023/10/29 07:38:54;;;;;;;4.30;1.90;;;11.90;99.90;;;;;;482341;246;28015;-72
2023/10/29 07:40:55;;;;;;;3.43;1.80;;;11.90;99.90;;;;;;482442;246;27888;-74
2023/10/29 07:42:57;;;;;;;3.13;1.97;;;11.90;99.90;;;;;;482428;246;28118;-72
2023/10/29 07:44:58;;;;;;;1.70;1.60;;;11.90;99.90;;;;;;482432;246;28250;-72
2023/10/29 07:47:03;;;;;;;3.03;1.80;;;11.90;99.90;;;;;;482373;246;28194;-72
2023/10/29 07:49:00;;;;;;;3.10;2.30;;;11.90;99.90;;;;;;482376;246;28243;-72
2023/10/29 07:51:01;;;;;;;3.47;2.00;;;12.00;99.90;;;;;;482400;246;28184;-73
2023/10/29 07:53:02;;;;;;;5.20;2.00;;;12.00;99.90;;;;;;482389;246;27979;-72
2023/10/29 07:55:04;;;;;;;3.30;2.00;;;11.90;99.90;;;;;;482417;246;28947;-72
2023/10/29 07:57:05;;;;;;;2.97;2.00;;;11.90;99.90;;;;;;482438;246;29464;-72
2023/10/29 07:59:07;;;;;;;1.73;1.60;;;11.90;99.90;;;;;;482454;246;28693;-72
2023/10/29 08:01:08;;;;;;;2.50;2.10;;;11.90;99.90;;;;;;482482;246;28299;-72
2023/10/29 08:03:09;;;;;;;3.40;1.93;;;11.90;99.90;;;;;;482457;246;27984;-72
2023/10/29 08:05:14;;;;;;;3.43;2.17;;;11.90;99.90;;;;;;482467;246;28142;-72
2023/10/29 08:07:14;;;;;;;6.40;2.30;;;11.90;99.90;;;;;;482450;246;28236;-72
2023/10/29 08:09:16;;;;;;;2.07;1.60;;;11.90;99.90;;;;;;482474;246;28322;-73
2023/10/29 08:11:17;;;;;;;2.13;1.90;;;11.90;99.90;;;;;;482410;246;28160;-72
2023/10/29 08:13:18;;;;;;;3.33;1.90;;;11.90;99.90;;;;;;482421;246;28262;-72
2023/10/29 08:15:19;;;;;;;2.67;1.93;;;12.00;99.90;;;;;;482404;246;28102;-71
2023/10/29 08:17:21;;;;;;;3.53;2.13;;;12.00;99.90;;;;;;482401;246;28065;-72
2023/10/29 08:19:25;;;;;;;3.83;1.90;;;;;;;;;;482407;246;28907;-70
2023/10/29 08:21:26;;;;;;;7.73;2.00;;;11.90;99.90;;;;;;474784;250;27061;-72
2023/10/29 08:23:27;;;;;;;4.93;2.00;;;12.00;99.90;;;;;;474820;249;28496;-72
2023/10/29 08:25:28;;;;;;;3.20;2.10;;;12.00;99.90;;;;;;474874;249;28504;-72
2023/10/29 08:27:30;;;;;;;3.13;1.97;;;12.00;99.90;;;;;;474885;249;28552;-73
2023/10/29 08:29:31;;;;;;;3.33;2.37;;;12.00;99.90;;;;;;474868;249;28151;-71
2023/10/29 08:31:32;;;;;;;2.33;1.90;;;12.00;99.90;;;;;;474864;249;28427;-71
2023/10/29 08:33:35;;;;;;;2.83;1.73;;;;;;;;;;474915;249;28955;-71
2023/10/29 08:35:36;;;;;;;4.90;2.20;;;12.00;99.90;;;;;;482491;246;27243;-72
2023/10/29 08:37:37;;;;;;;4.20;2.43;;;12.10;99.90;;;;;;482449;246;28404;-71
2023/10/29 08:39:38;;;;;;;3.23;2.90;;;12.00;99.90;;;;;;482438;246;28258;-71
2023/10/29 08:41:39;;;;;;;3.67;1.80;;;12.00;99.90;;;;;;482428;246;28115;-71
2023/10/29 08:43:41;;;;;;;1.93;1.80;;;12.00;99.90;;;;;;482434;246;28414;-71
2023/10/29 08:45:42;;;;;;;4.23;2.20;;;12.00;99.90;;;;;;482459;246;28865;-71
2023/10/29 08:47:44;;;;;;;4.77;2.07;;;;;;;;;;482424;246;29016;-72
2023/10/29 08:49:46;;;;;;;2.10;1.80;;;12.00;99.90;;;;;;482443;246;26963;-70
2023/10/29 08:51:47;;;;;;;1.70;1.60;;;12.10;99.90;;;;;;482467;246;28572;-71
2023/10/29 08:53:49;;;;;;;3.00;1.80;;;12.10;99.90;;;;;;482446;246;28641;-72
2023/10/29 08:55:51;;;;;;;5.20;2.00;;;12.20;99.90;;;;;;482420;244;28578;-70
2023/10/29 08:57:51;;;;;;;3.70;2.10;;;12.20;99.90;;;;;;482422;246;28254;-71
2023/10/29 08:59:52;;;;;;;5.33;2.50;;;12.20;99.90;;;;;;482423;246;28156;-72
2023/10/29 09:01:53;;;;;;;3.70;2.20;;;12.20;99.90;;;;;;482455;246;28336;-71
2023/10/29 09:03:55;;;;;;;2.00;1.53;;;12.20;99.90;;;;;;482487;246;28360;-71
2023/10/29 09:05:56;;;;;;;3.10;1.80;;;12.20;99.90;;;;;;482474;246;28349;-71
2023/10/29 09:07:57;;;;;;;1.60;1.50;;;12.10;99.90;;;;;;482466;246;28481;-71
2023/10/29 09:09:58;;;;;;;2.47;1.60;;;12.10;99.90;;;;;;482504;246;28503;-72
2023/10/29 09:11:59;;;;;;;2.00;1.80;;;12.10;99.90;;;;;;482508;246;28103;-71
2023/10/29 09:14:01;;;;;;;3.43;2.10;;;12.00;99.90;;;;;;482445;246;28701;-71
2023/10/29 09:16:03;;;;;;;1.80;1.70;;;;;;;;;;482399;246;29598;-71
2023/10/29 09:18:04;;;;;;;3.00;1.70;;;12.00;99.90;;;;;;482401;244;27205;-71
2023/10/29 09:20:06;;;;;;;1.60;1.50;;;12.00;99.90;;;;;;482402;246;28212;-70
2023/10/29 09:22:07;;;;;;;1.60;1.50;;;12.10;99.90;;;;;;482424;246;28272;-70
2023/10/29 09:24:08;;;;;;;2.50;1.70;;;12.10;99.90;;;;;;482445;246;28359;-73
2023/10/29 09:26:09;;;;;;;3.53;1.73;;;12.10;99.90;;;;;;482463;245;29008;-71
2023/10/29 09:28:12;;;;;;;2.67;1.90;;;12.10;99.90;;;;;;482442;246;28788;-70
2023/10/29 09:30:12;;;;;;;2.27;1.60;;;12.10;99.90;;;;;;482427;246;28439;-71
2023/10/29 09:32:13;;;;;;;2.77;2.03;;;12.10;99.90;;;;;;482414;246;28775;-71
2023/10/29 09:34:14;;;;;;;1.97;1.87;;;12.20;99.90;;;;;;482459;246;28293;-73
2023/10/29 09:36:17;;;;;;;2.03;1.87;;;12.10;99.90;;;;;;482484;246;28302;-72
2023/10/29 09:38:20;;;;;;;3.97;2.07;;;12.10;99.90;;;;;;482450;246;28224;-71
2023/10/29 09:40:18;;;;;;;7.83;3.33;;;12.10;99.90;;;;;;482439;246;28094;-71
2023/10/29 09:42:20;;;;;;;5.10;2.47;;;12.10;99.90;;;;;;482483;246;28237;-71
2023/10/29 09:44:21;;;;;;;2.23;1.90;;;12.10;99.90;;;;;;482435;246;28479;-71
2023/10/29 09:46:23;;;;;;;2.13;1.97;;;12.10;99.90;;;;;;482412;246;28143;-71
2023/10/29 09:48:23;;;;;;;1.87;1.77;;;12.10;99.90;;;;;;482387;246;28183;-71
2023/10/29 09:50:25;;;;;;;3.00;2.00;;;12.10;99.90;;;;;;482428;246;29863;-71
2023/10/29 09:52:26;;;;;;;2.47;2.20;;;12.00;99.90;;;;;;482356;246;28790;-71
2023/10/29 09:54:27;;;;;;;1.70;1.60;;;12.00;99.90;;;;;;482431;246;28842;-71
2023/10/29 09:56:29;;;;;;;2.00;1.90;;;12.00;99.90;;;;;;482474;246;28673;-71
2023/10/29 09:58:29;;;;;;;3.67;2.37;;;12.00;99.90;;;;;;482457;246;28341;-71
2023/10/29 10:00:31;;;;;;;1.63;1.47;;;12.00;99.90;;;;;;482459;246;28201;-73
2023/10/29 10:02:32;;;;;;;1.33;1.23;;;12.00;99.90;;;;;;482450;246;28190;-70
2023/10/29 10:04:33;;;;;;;1.80;1.20;;;12.00;99.90;;;;;;482476;246;28011;-72
2023/10/29 10:06:34;;;;;;;1.40;1.23;;;12.10;99.90;;;;;;482466;246;28273;-71
2023/10/29 10:08:36;;;;;;;1.37;1.00;;;12.00;99.90;;;;;;482414;246;28169;-71
2023/10/29 10:10:37;;;;;;;1.20;1.10;;;12.00;99.90;;;;;;482312;246;28363;-72
2023/10/29 10:12:38;;;;;;;1.20;1.20;;;12.00;99.90;;;;;;482426;246;28328;-71
2023/10/29 10:14:39;;;;;;;2.07;1.10;;;12.00;99.90;;;;;;482447;246;28601;-71
2023/10/29 10:16:41;;;;;;;1.40;1.30;;;12.00;99.90;;;;;;482422;246;28574;-73
2023/10/29 10:18:42;;;;;;;1.63;1.20;;;12.00;99.90;;;;;;482390;246;28808;-71
2023/10/29 10:20:43;;;;;;;2.13;1.40;;;12.00;99.90;;;;;;482439;246;28626;-71
2023/10/29 10:22:44;;;;;;;1.30;1.20;;;12.00;99.90;;;;;;482452;246;28442;-71
2023/10/29 10:24:48;;;;;;;1.10;1.10;;;12.00;99.90;;;;;;482458;245;28121;-71
2023/10/29 10:26:48;;;;;;;2.00;1.33;;;11.90;99.90;;;;;;482469;246;28098;-70
2023/10/29 10:28:48;;;;;;;2.20;1.20;;;12.00;99.90;;;;;;482414;246;28181;-71
2023/10/29 10:30:50;;;;;;;3.07;1.27;;;11.90;99.90;;;;;;482465;246;28264;-71
2023/10/29 10:32:51;;;;;;;1.00;0.97;;;11.90;99.90;;;;;;482444;246;28212;-71